Overseas Long Beach — WAAT — position and weather

sailwx.info

Track history (hours):
 
Tides and Currents Weather Stations Pressure Air Temp Water Temp Dewpoint Dewpoint Depression Visibility Wind Speed Wind Dir Waves Ship Positions

Overseas Long Beach

Owner: ASC Leasing II, Inc., Philadelphia, PA. More information available from US FCC via Universal Licensing System and Coast Guard Vessel Documentation Center.

Last reported at 2014-Sep-30 17:33 UTC. Time now 2014-Oct-01 12:28 UTC.
Position N 25°38' W 080°00'.

Length 181 m; draft 7.7 m.

Type: Tanker. MMSI: 367703000.

Date/timePositionNaut miles runAvg speedWind from/ knotsBaromVisibWave heightAir tempDewpointWater temp
2014-Sep-30 17:33N 25°38' W 080°00'1313.3
2014-Sep-30 16:33N 25°51' W 079°60'1313.0
2014-Sep-30 15:34N 26°04' W 079°60'1313.3
2014-Sep-30 14:34N 26°17' W 079°59'1413.7
2014-Sep-30 13:33N 26°31' W 079°58'1414.0
2014-Sep-30 12:33N 26°45' W 079°56'1313.5
2014-Sep-30 11:34N 26°58' W 079°57'1514.7
2014-Sep-30 10:33N 27°13' W 079°59'  
2014-Sep-26 19:08N 26°31' W 079°43'1017.4
2014-Sep-26 18:33N 26°21' W 079°44'1716.9
2014-Sep-26 17:33N 26°04' W 079°46'1716.8
2014-Sep-26 16:33N 25°48' W 079°51'12814.9
2014-Sep-26 08:00N 24°12' W 081°24'5513.8 050 / 171012.010.8 27.826.3
2014-Sep-26 04:00N 24°06' W 082°24'34414.3 060 / 151013.010.8 0.527.827.0
2014-Sep-25 04:00N 26°12' W 088°18'   060 / 281016.010.8 0.527.225.7
Track history (hours):
 
Tides and Currents Weather Stations Pressure Air Temp Water Temp Dewpoint Dewpoint Depression Visibility Wind Speed Wind Dir Waves Ship Positions

Overseas Long Beach

Owner: ASC Leasing II, Inc., Philadelphia, PA. More information available from US FCC via Universal Licensing System and Coast Guard Vessel Documentation Center.

Last reported at 2014-Sep-30 17:33 UTC. Time now 2014-Oct-01 12:28 UTC.
Position N 25°38' W 080°00'.

Length 181 m; draft 7.7 m.

Type: Tanker. MMSI: 367703000.

Date/timePositionNaut miles runAvg speedWind from/ knotsBaromVisibWave heightAir tempDewpointWater temp
2014-Sep-30 17:33N 25°38' W 080°00'1313.3
2014-Sep-30 16:33N 25°51' W 079°60'1313.0
2014-Sep-30 15:34N 26°04' W 079°60'1313.3
2014-Sep-30 14:34N 26°17' W 079°59'1413.7
2014-Sep-30 13:33N 26°31' W 079°58'1414.0
2014-Sep-30 12:33N 26°45' W 079°56'1313.5
2014-Sep-30 11:34N 26°58' W 079°57'1514.7
2014-Sep-30 10:33N 27°13' W 079°59'  
2014-Sep-26 19:08N 26°31' W 079°43'1017.4
2014-Sep-26 18:33N 26°21' W 079°44'1716.9
2014-Sep-26 17:33N 26°04' W 079°46'1716.8
2014-Sep-26 16:33N 25°48' W 079°51'12814.9
2014-Sep-26 08:00N 24°12' W 081°24'5513.8 050 / 171012.010.8 27.826.3
2014-Sep-26 04:00N 24°06' W 082°24'34414.3 060 / 151013.010.8 0.527.827.0
2014-Sep-25 04:00N 26°12' W 088°18'   060 / 281016.010.8 0.527.225.7

Dump ship's entire track history